首页
METAR-TAF:

METAR-TAF

机场 :

格域機場, 英格兰

纬度: 51-09N, 经度: 000-11W, 海拔: 62米

当前天气观测

该预报发布于11分钟前的01:20 UTC
风速2节,风向西南
温度 10°C
湿度 100%
气压 1007 hPa
能见度10公里或以上
少量云层高于3200英尺
散云层高于3900英尺

METAR: EGKK 170120Z 22002KT 9999 FEW032 SCT039 10/10 Q1007

时间: 02:31 (01:31 UTC)

预报

该预报发布于2小时和35分钟前的22:56 UTC
预报有效从17日的 00点(UTC)到 18日的 06点(UTC)
风速3节,风向多变
能见度10公里或以上
少量云层高于3000英尺
几率 30% :
短暂存在
从 17日的 00点(UTC)到 17日的 08点(UTC)
能見度: 5000
轻雾
成为
从 17日的 09点(UTC)到 17日的 12点(UTC)
风速10节,风向
短暂存在
从 17日的 09点(UTC)到 17日的 18点(UTC)
能見度: 7000
阵雨
几率 30% :
短暂存在
从 17日的 11点(UTC)到 17日的 17点(UTC)
风速15节,风向南转西南,有时为25节阵风
能見度: 4000
多云层高于1400英尺
大阵雨
几率 40% :
短暂存在
从 17日的 21点(UTC)到 17日的 24点(UTC)
能見度: 7000
阵雨
几率 40% :
短暂存在
从 18日的 00点(UTC)到 18日的 06点(UTC)
风速15节,风向南转西南,有时为25节阵风
能見度: 4000
多云层高于1400英尺, 积雨云.
大阵雨

TAF: EGKK 162256Z 1700/1806 VRB03KT 9999 FEW030 PROB30 TEMPO 1700/1708 5000 BR BECMG 1709/1712 18010KT TEMPO 1709/1718 7000 SHRA PROB30 TEMPO 1711/1717 20015G25KT 4000 +SHRA BKN014 PROB40 TEMPO 1721/1724 7000 SHRA PROB40 TEMPO 1800/1806 20015G25KT 4000 +SHRA BKN014CB

超过4000个机场的气象观测和天气预报(METAR&TAF报告)。

可查询的气象台以黄色和红色小点在地图上表示。

将鼠标移到小点上方,可查看气象台名称。

然后点击查看天气观测和预报。

如需切换地图:点击带黑十字的绿色按钮放大地图;点击带横线的绿色按钮缩小地图;或者点击绿色箭头查看邻近地区的地图。


METAR-TAF: